createdAt,value
2023-04-04T00:03:56.676Z,0.13
2023-04-04T00:09:05.244Z,-0.04
2023-04-04T00:14:12.117Z,0.00
2023-04-04T00:19:19.278Z,0.02
2023-04-04T00:24:29.893Z,-0.08
2023-04-04T00:29:37.726Z,-0.15
2023-04-04T00:34:44.313Z,-0.30
2023-04-04T00:39:53.917Z,-0.26
2023-04-04T00:45:00.879Z,-0.36
2023-04-04T00:50:09.780Z,-0.37
2023-04-04T00:55:18.080Z,-0.60
2023-04-04T01:00:25.898Z,-0.62
2023-04-04T01:05:33.998Z,-0.56
2023-04-04T01:10:43.276Z,-0.51
2023-04-04T01:15:50.862Z,-0.57
2023-04-04T01:21:05.141Z,-0.76
2023-04-04T01:26:13.252Z,-0.66
2023-04-04T01:31:26.484Z,-0.66
2023-04-04T01:36:42.529Z,-0.63
2023-04-04T01:41:51.703Z,-0.61
2023-04-04T01:46:59.550Z,-0.66
2023-04-04T01:52:07.502Z,-0.69
2023-04-04T01:57:15.924Z,-0.66
2023-04-04T02:02:23.293Z,-0.70
2023-04-04T02:07:29.776Z,-0.70
2023-04-04T02:12:37.822Z,-0.72
2023-04-04T02:17:48.654Z,-0.81
2023-04-04T02:22:56.543Z,-0.78
2023-04-04T02:28:04.513Z,-0.77
2023-04-04T02:33:10.875Z,-0.89
2023-04-04T02:38:18.551Z,-0.92
2023-04-04T02:43:27.965Z,-0.89
2023-04-04T02:48:36.717Z,-0.89
2023-04-04T02:53:47.233Z,-0.88
2023-04-04T02:59:10.470Z,-0.91
2023-04-04T03:04:17.451Z,-1.04
2023-04-04T03:09:24.057Z,-1.04
2023-04-04T03:14:31.925Z,-1.11
2023-04-04T03:19:38.762Z,-1.08
2023-04-04T03:24:45.659Z,-1.07
2023-04-04T03:29:54.628Z,-1.13
2023-04-04T03:35:01.931Z,-1.18
2023-04-04T03:40:11.508Z,-1.16
2023-04-04T03:45:20.623Z,-1.18
2023-04-04T03:50:27.103Z,-1.16
2023-04-04T03:55:35.554Z,-1.19
2023-04-04T04:00:43.529Z,-1.21
2023-04-04T04:05:52.488Z,-1.25
2023-04-04T04:10:58.929Z,-1.25
2023-04-04T04:16:08.035Z,-1.24
2023-04-04T04:21:17.776Z,-1.20
2023-04-04T04:26:24.120Z,-1.29
2023-04-04T04:31:32.283Z,-1.21
2023-04-04T04:36:39.477Z,-1.14
2023-04-04T04:42:12.304Z,-1.09
2023-04-04T04:47:28.478Z,-1.06
2023-04-04T04:52:34.984Z,-1.02
2023-04-04T04:57:41.608Z,-0.93
2023-04-04T05:03:00.856Z,-0.91
2023-04-04T05:08:19.223Z,-0.83
2023-04-04T05:13:39.013Z,-0.84
2023-04-04T05:18:47.105Z,-0.78
2023-04-04T05:23:53.929Z,-0.67
2023-04-04T05:29:02.891Z,-0.66
2023-04-04T05:34:12.223Z,-0.57
2023-04-04T05:39:19.152Z,-0.58
2023-04-04T05:44:38.620Z,-0.60
2023-04-04T05:49:48.321Z,-0.50
2023-04-04T05:54:54.964Z,-0.36
2023-04-04T06:00:10.039Z,-0.30
2023-04-04T06:05:22.574Z,-0.17
2023-04-04T06:10:29.149Z,-0.05
2023-04-04T06:15:36.681Z,-0.01
2023-04-04T06:20:46.889Z,-0.01
2023-04-04T06:25:56.859Z,0.07
2023-04-04T06:31:08.535Z,0.23
2023-04-04T06:36:18.192Z,0.17
2023-04-04T06:41:26.689Z,0.34
2023-04-04T06:46:33.771Z,0.38
2023-04-04T06:51:43.137Z,0.38
2023-04-04T06:56:50.757Z,0.42
2023-04-04T07:01:58.584Z,0.28
2023-04-04T07:07:06.394Z,0.37
2023-04-04T07:12:13.191Z,0.20
2023-04-04T07:17:24.788Z,0.20
2023-04-04T07:22:33.272Z,0.24
2023-04-04T07:27:41.267Z,0.37
2023-04-04T07:32:48.061Z,0.45
2023-04-04T07:37:57.953Z,0.45
2023-04-04T07:43:04.603Z,0.60
2023-04-04T07:48:11.255Z,0.52
2023-04-04T07:53:19.234Z,0.60
2023-04-04T07:58:27.560Z,0.68
2023-04-04T08:03:34.234Z,0.79
2023-04-04T08:08:43.260Z,0.86
2023-04-04T08:13:49.595Z,1.04
2023-04-04T08:18:56.734Z,1.18
2023-04-04T08:24:05.674Z,1.26
2023-04-04T08:29:11.900Z,1.32
2023-04-04T08:34:18.154Z,1.40
2023-04-04T08:39:26.577Z,1.54
2023-04-04T08:44:34.336Z,1.57
2023-04-04T08:49:45.204Z,1.84
2023-04-04T08:54:55.295Z,1.94
2023-04-04T09:00:02.966Z,2.17
2023-04-04T09:05:13.853Z,2.11
2023-04-04T09:10:23.805Z,2.18
2023-04-04T09:15:30.888Z,2.35
2023-04-04T09:20:42.406Z,2.58
2023-04-04T09:31:06.114Z,2.39
2023-04-04T09:36:18.135Z,2.50
2023-04-04T09:41:28.900Z,2.25
2023-04-04T09:46:37.584Z,2.23
2023-04-04T09:51:44.106Z,2.51
2023-04-04T09:56:54.315Z,2.63
2023-04-04T10:02:03.337Z,2.54
2023-04-04T10:07:14.766Z,2.63
2023-04-04T10:12:26.183Z,2.69
2023-04-04T10:17:38.079Z,2.76
2023-04-04T10:22:47.846Z,2.83
2023-04-04T10:27:55.974Z,2.72
2023-04-04T10:33:08.866Z,2.71
2023-04-04T10:38:16.275Z,2.77
2023-04-04T10:43:28.584Z,2.70
2023-04-04T10:48:35.873Z,2.73
2023-04-04T10:53:45.366Z,2.76
2023-04-04T10:59:12.216Z,2.82
2023-04-04T11:04:21.217Z,2.93
2023-04-04T11:09:50.365Z,3.03
2023-04-04T11:15:14.797Z,2.93
2023-04-04T11:20:24.060Z,2.92
2023-04-04T11:25:43.297Z,2.90
2023-04-04T11:31:11.902Z,2.96
2023-04-04T11:36:42.694Z,3.00
2023-04-04T11:41:54.287Z,3.00
2023-04-04T11:47:11.511Z,3.02
2023-04-04T11:52:21.476Z,3.06
2023-04-04T11:57:27.930Z,2.94
2023-04-04T12:02:36.870Z,2.98
2023-04-04T12:07:43.882Z,2.99
2023-04-04T12:12:50.749Z,3.03
2023-04-04T12:17:58.871Z,3.12
2023-04-04T12:23:05.605Z,3.01
2023-04-04T12:28:13.456Z,2.94
2023-04-04T12:33:23.208Z,2.98
2023-04-04T12:38:30.919Z,2.97
2023-04-04T12:43:43.282Z,2.99
2023-04-04T12:48:52.947Z,3.00
2023-04-04T12:54:00.110Z,2.98
2023-04-04T12:59:11.219Z,2.97
2023-04-04T13:04:21.500Z,2.98
2023-04-04T13:09:29.254Z,3.03
2023-04-04T13:15:00.365Z,3.04
2023-04-04T13:20:10.092Z,2.92
2023-04-04T13:25:18.733Z,2.96
2023-04-04T13:30:26.540Z,2.95
2023-04-04T13:35:35.038Z,3.03
2023-04-04T13:40:41.597Z,3.07
2023-04-04T13:45:48.162Z,3.19
2023-04-04T13:50:59.822Z,3.24
2023-04-04T14:01:16.002Z,3.33
2023-04-04T14:06:24.038Z,3.28
2023-04-04T14:11:31.452Z,3.42
2023-04-04T14:16:37.970Z,3.54
2023-04-04T14:21:46.844Z,3.51
2023-04-04T14:26:53.458Z,3.53
2023-04-04T14:32:00.006Z,3.64
2023-04-04T14:37:08.564Z,3.64
2023-04-04T14:42:15.338Z,3.72
2023-04-04T14:47:22.438Z,3.75
2023-04-04T14:52:31.420Z,3.75
2023-04-04T14:57:46.982Z,3.70
2023-04-04T15:03:05.654Z,3.65
2023-04-04T15:08:14.910Z,3.54
2023-04-04T15:13:21.314Z,3.38
2023-04-04T15:18:27.873Z,3.38
2023-04-04T15:23:35.709Z,3.27
2023-04-04T15:28:43.678Z,3.24
2023-04-04T15:33:53.540Z,3.28
2023-04-04T15:39:02.578Z,3.34
2023-04-04T15:44:09.179Z,3.31
2023-04-04T15:49:17.970Z,3.35
2023-04-04T15:54:29.222Z,3.27
2023-04-04T15:59:35.505Z,3.16
2023-04-04T16:04:41.943Z,3.08
2023-04-04T16:09:50.150Z,2.93
2023-04-04T16:14:56.860Z,2.87
2023-04-04T16:20:03.785Z,2.90
2023-04-04T16:25:12.450Z,2.87
2023-04-04T16:30:21.397Z,2.85
2023-04-04T16:35:29.411Z,2.83
2023-04-04T16:40:38.085Z,2.82
2023-04-04T16:45:46.211Z,2.77
2023-04-04T16:50:53.861Z,2.63
2023-04-04T16:56:02.039Z,2.49
2023-04-04T17:01:08.652Z,2.39
2023-04-04T17:06:15.752Z,2.25
2023-04-04T17:11:24.171Z,2.18
2023-04-04T17:16:30.955Z,2.10
2023-04-04T17:21:37.586Z,1.98
2023-04-04T17:26:48.053Z,1.86
2023-04-04T17:31:56.562Z,1.69
2023-04-04T17:37:03.860Z,1.54
2023-04-04T17:42:12.130Z,1.35
2023-04-04T17:47:20.239Z,1.19
2023-04-04T17:52:29.876Z,1.14
2023-04-04T17:57:38.799Z,0.97
2023-04-04T18:02:46.798Z,0.90
2023-04-04T18:07:55.058Z,0.77
2023-04-04T18:13:06.171Z,0.70
2023-04-04T18:18:14.185Z,0.62
2023-04-04T18:23:21.999Z,0.54
2023-04-04T18:28:30.545Z,0.28
2023-04-04T18:33:37.043Z,0.24
2023-04-04T18:38:48.023Z,0.16
2023-04-04T18:43:57.824Z,0.08
2023-04-04T18:49:05.671Z,0.01
2023-04-04T18:54:17.165Z,-0.09
2023-04-04T18:59:28.523Z,-0.29
2023-04-04T19:04:39.085Z,-0.53
2023-04-04T19:09:48.865Z,-0.66
2023-04-04T19:14:57.615Z,-0.73
2023-04-04T19:20:06.221Z,-1.47
2023-04-04T19:25:15.366Z,-1.21
2023-04-04T19:30:45.726Z,-1.04
2023-04-04T19:35:56.487Z,-0.94
2023-04-04T19:41:10.210Z,-1.13
2023-04-04T19:46:28.382Z,-1.07
2023-04-04T19:51:54.920Z,-1.08
2023-04-04T19:57:03.975Z,-0.99
2023-04-04T20:02:54.609Z,-1.00
2023-04-04T20:08:03.171Z,-0.99
2023-04-04T20:13:11.671Z,-1.22
2023-04-04T20:18:27.654Z,-1.16
2023-04-04T20:23:42.306Z,-1.15
2023-04-04T20:28:50.455Z,-1.22
2023-04-04T20:34:00.984Z,-1.24
2023-04-04T20:39:41.720Z,-1.30
2023-04-04T20:44:48.884Z,-1.39
2023-04-04T20:49:57.522Z,-1.50
2023-04-04T20:55:09.098Z,-1.60
2023-04-04T21:00:41.718Z,-1.72
2023-04-04T21:05:50.728Z,-1.73
2023-04-04T21:11:00.193Z,-1.83
2023-04-04T21:16:12.056Z,-1.80
2023-04-04T21:21:21.657Z,-1.78
2023-04-04T21:26:36.902Z,-1.82
2023-04-04T21:31:44.564Z,-1.93
2023-04-04T21:36:56.905Z,-1.90
2023-04-04T21:42:08.455Z,-1.91
2023-04-04T21:47:15.922Z,-2.14
2023-04-04T21:52:24.477Z,-2.07
2023-04-04T21:57:30.831Z,-2.09
2023-04-04T22:02:40.167Z,-2.20
2023-04-04T22:07:47.913Z,-2.25
2023-04-04T22:12:55.275Z,-2.47
2023-04-04T22:18:04.147Z,-2.39
2023-04-04T22:23:12.615Z,-2.37
2023-04-04T22:28:25.260Z,-2.46
2023-04-04T22:33:34.271Z,-2.45
2023-04-04T22:38:41.769Z,-2.67
2023-04-04T22:43:50.884Z,-2.68
2023-04-04T22:49:06.132Z,-2.65
2023-04-04T22:54:18.645Z,-2.74
2023-04-04T22:59:25.170Z,-2.67
2023-04-04T23:04:32.085Z,-2.88
2023-04-04T23:09:39.847Z,-2.92
2023-04-04T23:14:47.589Z,-3.21
2023-04-04T23:19:56.977Z,-3.10
2023-04-04T23:25:09.254Z,-3.03
2023-04-04T23:30:16.119Z,-2.98
2023-04-04T23:35:22.646Z,-2.99
2023-04-04T23:40:30.592Z,-3.03
2023-04-04T23:45:41.735Z,-3.16
2023-04-04T23:50:50.445Z,-3.52
2023-04-04T23:55:58.557Z,-3.29
